Aviation Digital Data Service (ADDS)

Output produced by METARs form (2209 UTC 23 March 2017)
found at http://aviationweather.gov/adds/metars/
 
KATL 232205Z 2322/2424 12012G20KT P6SM BKN045 
     FM240800 13008KT P6SM BKN020 BKN050 
     FM241500 14009KT P6SM FEW020 BKN040 
     FM241800 15010KT P6SM BKN050